createdAt,value
2023-04-18T13:12:40.009Z,25.00
2023-04-18T13:13:40.020Z,25.00
2023-04-18T13:14:39.969Z,25.00
2023-04-18T13:15:39.990Z,25.00
2023-04-18T13:16:41.108Z,25.00
2023-04-18T13:17:40.071Z,25.00
2023-04-18T13:18:39.985Z,25.00
2023-04-18T13:19:39.956Z,25.00
2023-04-18T13:20:39.959Z,25.00
2023-04-18T13:21:39.929Z,25.00
2023-04-18T13:22:39.921Z,18.96
2023-04-18T13:23:39.902Z,16.26
2023-04-18T13:24:39.906Z,23.70
2023-04-18T13:25:39.926Z,24.90
2023-04-18T13:26:39.886Z,25.00
2023-04-18T13:27:41.730Z,25.00
2023-04-18T13:28:39.997Z,15.03
2023-04-18T13:29:39.857Z,0.00
2023-04-18T13:30:39.894Z,0.00
2023-04-18T13:31:39.908Z,0.00
2023-04-18T13:32:39.901Z,0.00
2023-04-18T13:33:39.835Z,0.00
2023-04-18T13:34:39.841Z,10.01
2023-04-18T13:35:39.848Z,25.00
2023-04-18T13:36:39.861Z,26.42
2023-04-18T13:37:39.842Z,27.75
2023-04-18T13:38:39.805Z,25.13
2023-04-18T13:39:39.802Z,27.13
2023-04-18T13:40:39.796Z,25.69
2023-04-18T13:41:39.790Z,25.04
2023-04-18T13:42:39.810Z,26.94
2023-04-18T13:43:39.788Z,25.88
2023-04-18T13:44:39.913Z,25.23
2023-04-18T13:45:39.888Z,25.00
2023-04-18T13:46:39.746Z,25.76
2023-04-18T13:47:39.817Z,25.25
2023-04-18T13:48:39.735Z,26.49
2023-04-18T13:49:39.763Z,26.75
2023-04-18T13:50:39.761Z,25.41
2023-04-18T13:51:39.739Z,26.41
2023-04-18T13:52:39.720Z,25.00
2023-04-18T13:53:39.783Z,25.00
2023-04-18T13:54:39.830Z,25.00
2023-04-18T13:55:39.820Z,29.41
2023-04-18T13:56:39.896Z,25.00
2023-04-18T13:57:39.952Z,25.00
2023-04-18T13:58:40.024Z,29.29
2023-04-18T13:59:40.066Z,27.07
2023-04-18T14:00:40.665Z,28.42
2023-04-18T14:01:40.243Z,25.00
2023-04-18T14:02:40.374Z,27.18
2023-04-18T14:03:43.057Z,32.61
2023-04-18T14:04:40.423Z,26.66
2023-04-18T14:05:40.268Z,25.10
2023-04-18T14:06:40.268Z,28.97
2023-04-18T14:07:40.282Z,29.92
2023-04-18T14:08:40.253Z,31.18
2023-04-18T14:09:40.258Z,28.81
2023-04-18T14:10:40.262Z,32.06
2023-04-18T14:11:40.251Z,27.65
2023-04-18T14:12:40.242Z,26.56
2023-04-18T14:13:40.226Z,27.81
2023-04-18T14:14:40.228Z,31.01
2023-04-18T14:15:40.227Z,29.32
2023-04-18T14:16:40.199Z,31.37
2023-04-18T14:17:40.250Z,25.00
2023-04-18T14:18:40.205Z,26.77
2023-04-18T14:19:40.217Z,25.81
2023-04-18T14:20:40.163Z,28.86
2023-04-18T14:21:40.177Z,35.60
2023-04-18T14:22:40.182Z,32.52
2023-04-18T14:23:40.150Z,28.44
2023-04-18T14:24:40.184Z,26.54
2023-04-18T14:25:40.145Z,27.10
2023-04-18T14:26:40.187Z,30.52
2023-04-18T14:27:40.165Z,29.56
2023-04-18T14:28:40.132Z,33.45
2023-04-18T14:29:40.114Z,31.26
2023-04-18T14:30:40.145Z,32.79
2023-04-18T14:31:40.148Z,30.45
2023-04-18T14:32:40.201Z,32.47
2023-04-18T14:33:40.086Z,33.33
2023-04-18T14:34:40.106Z,31.83
2023-04-18T14:35:40.061Z,31.74
2023-04-18T14:36:40.094Z,34.51
2023-04-18T14:37:40.090Z,31.95
2023-04-18T14:38:40.087Z,31.48
2023-04-18T14:39:40.054Z,32.06
2023-04-18T14:40:40.046Z,30.46
2023-04-18T14:41:40.025Z,25.00
2023-04-18T14:42:40.032Z,26.91
2023-04-18T14:43:40.069Z,31.86
2023-04-18T14:44:40.040Z,35.94
2023-04-18T14:45:39.998Z,35.17
2023-04-18T14:46:40.071Z,28.25
2023-04-18T14:47:40.080Z,34.99
2023-04-18T14:48:40.034Z,34.35
2023-04-18T14:49:39.988Z,36.23
2023-04-18T14:50:39.969Z,31.92
2023-04-18T14:51:39.940Z,34.94
2023-04-18T14:52:39.942Z,32.27
2023-04-18T14:53:39.957Z,37.24
2023-04-18T14:54:39.941Z,38.24
2023-04-18T14:55:39.954Z,38.17
2023-04-18T14:56:39.929Z,38.00
2023-04-18T14:57:39.986Z,40.15
2023-04-18T14:58:39.952Z,41.55
2023-04-18T14:59:39.933Z,37.44
2023-04-18T15:00:39.934Z,36.85
2023-04-18T15:01:39.984Z,32.75
2023-04-18T15:02:40.175Z,34.10
2023-04-18T15:03:40.156Z,34.34
2023-04-18T15:04:40.111Z,30.08
2023-04-18T15:05:39.981Z,31.11
2023-04-18T15:06:39.980Z,31.42
2023-04-18T15:07:39.951Z,29.71
2023-04-18T15:08:39.923Z,37.96
2023-04-18T15:09:39.927Z,36.17
2023-04-18T15:10:39.954Z,40.00
2023-04-18T15:11:39.963Z,40.76
2023-04-18T15:12:39.963Z,41.88
2023-04-18T15:13:39.973Z,34.77
2023-04-18T15:14:39.953Z,34.88
2023-04-18T15:15:39.960Z,39.44
2023-04-18T15:16:40.015Z,28.52
2023-04-18T15:17:40.039Z,29.30
2023-04-18T15:18:40.042Z,41.19
2023-04-18T15:19:40.094Z,37.53
2023-04-18T15:20:40.219Z,38.35
2023-04-18T15:21:40.161Z,35.98
2023-04-18T15:22:40.213Z,40.70
2023-04-18T15:23:40.259Z,29.71
2023-04-18T15:24:40.325Z,48.75
2023-04-18T15:25:40.405Z,36.95
2023-04-18T15:26:40.482Z,39.16
2023-04-18T15:27:40.498Z,46.01
2023-04-18T15:28:40.592Z,37.02
2023-04-18T15:29:40.617Z,33.43
2023-04-18T15:30:40.719Z,36.30
2023-04-18T15:31:40.810Z,38.72
2023-04-18T15:32:40.850Z,44.93
2023-04-18T15:33:40.905Z,44.81
2023-04-18T15:34:40.933Z,39.07
2023-04-18T15:35:41.020Z,41.06
2023-04-18T15:36:41.039Z,39.20
2023-04-18T15:37:41.131Z,43.37
2023-04-18T15:38:41.170Z,38.96
2023-04-18T15:39:41.212Z,38.44
2023-04-18T15:40:41.253Z,38.89
2023-04-18T15:41:41.302Z,44.10
2023-04-18T15:42:41.373Z,46.60
2023-04-18T15:43:41.463Z,42.62
2023-04-18T15:44:41.462Z,44.44
2023-04-18T15:45:41.581Z,53.51
2023-04-18T15:46:41.626Z,41.76
2023-04-18T15:47:41.677Z,45.57
2023-04-18T15:48:41.680Z,37.32
2023-04-18T15:49:41.707Z,46.03
2023-04-18T15:50:41.755Z,45.21
2023-04-18T15:51:41.841Z,41.27
2023-04-18T15:52:41.854Z,54.55
2023-04-18T15:53:41.891Z,49.59
2023-04-18T15:54:41.978Z,49.08
2023-04-18T15:55:41.986Z,45.28
2023-04-18T15:56:42.040Z,43.09
2023-04-18T15:57:42.067Z,50.62
2023-04-18T15:58:42.091Z,41.42
2023-04-18T15:59:42.133Z,49.03
2023-04-18T16:00:42.171Z,48.90
2023-04-18T16:01:43.327Z,50.24
2023-04-18T16:02:42.246Z,49.64
2023-04-18T16:03:42.331Z,51.43
2023-04-18T16:04:42.244Z,55.32
2023-04-18T16:05:42.191Z,50.13
2023-04-18T16:06:42.202Z,43.03
2023-04-18T16:07:42.225Z,48.05
2023-04-18T16:08:42.195Z,44.66
2023-04-18T16:09:42.164Z,42.34
2023-04-18T16:10:42.169Z,49.36
2023-04-18T16:11:42.159Z,52.75
2023-04-18T16:12:42.170Z,52.05
2023-04-18T16:13:42.149Z,46.05
2023-04-18T16:14:42.129Z,50.50
2023-04-18T16:15:42.189Z,41.53
2023-04-18T16:16:42.121Z,50.55
2023-04-18T16:17:42.149Z,50.54
2023-04-18T16:18:42.128Z,48.09
2023-04-18T16:19:42.142Z,52.66
2023-04-18T16:20:42.114Z,50.86
2023-04-18T16:21:42.111Z,50.63
2023-04-18T16:22:42.108Z,47.49
2023-04-18T16:23:42.094Z,51.23
2023-04-18T16:24:42.334Z,44.87
2023-04-18T16:25:42.080Z,47.52
2023-04-18T16:26:42.036Z,49.13
2023-04-18T16:27:42.043Z,51.32
2023-04-18T16:28:42.065Z,52.65
2023-04-18T16:29:42.046Z,50.51
2023-04-18T16:30:42.067Z,51.16
2023-04-18T16:31:42.053Z,51.83
2023-04-18T16:32:42.074Z,50.16
2023-04-18T16:33:42.133Z,50.34
2023-04-18T16:34:42.008Z,51.91
2023-04-18T16:35:42.030Z,51.30
2023-04-18T16:36:42.000Z,51.24
2023-04-18T16:37:42.016Z,49.84
2023-04-18T16:38:42.026Z,51.02
2023-04-18T16:39:41.976Z,50.93
2023-04-18T16:40:41.981Z,52.33
2023-04-18T16:41:42.003Z,51.31
2023-04-18T16:42:41.994Z,51.04
2023-04-18T16:43:42.119Z,51.03
2023-04-18T16:44:42.190Z,52.54
2023-04-18T16:45:42.170Z,53.70
2023-04-18T16:46:42.191Z,53.28
2023-04-18T16:47:42.255Z,52.16
2023-04-18T16:48:42.232Z,51.94
2023-04-18T16:49:42.275Z,54.07
2023-04-18T16:50:42.305Z,54.06
2023-04-18T16:51:42.318Z,56.45
2023-04-18T16:52:42.345Z,55.46
2023-04-18T16:53:42.379Z,55.36
2023-04-18T16:54:42.426Z,56.70
2023-04-18T16:55:42.453Z,55.97
2023-04-18T16:56:42.451Z,58.14
2023-04-18T16:57:42.455Z,55.63
2023-04-18T16:58:42.467Z,58.11
2023-04-18T16:59:42.459Z,59.82
2023-04-18T17:00:42.493Z,59.78
2023-04-18T17:01:42.559Z,57.48
2023-04-18T17:02:42.564Z,58.83
2023-04-18T17:03:42.635Z,60.33
2023-04-18T17:04:42.546Z,59.63
2023-04-18T17:05:42.536Z,58.79
2023-04-18T17:06:42.533Z,61.17
2023-04-18T17:07:42.541Z,59.75
2023-04-18T17:08:42.533Z,60.64
2023-04-18T17:09:42.502Z,62.78
2023-04-18T17:10:42.489Z,60.85
2023-04-18T17:11:42.508Z,62.86
2023-04-18T17:12:42.537Z,62.38
2023-04-18T17:13:42.526Z,62.32
2023-04-18T17:14:42.500Z,62.67
2023-04-18T17:15:42.459Z,61.39
2023-04-18T17:16:42.614Z,61.98
2023-04-18T17:17:42.547Z,62.28
2023-04-18T17:18:42.474Z,63.83
2023-04-18T17:19:42.461Z,63.34
2023-04-18T17:20:42.483Z,65.94
2023-04-18T17:21:42.445Z,64.68
2023-04-18T17:22:42.440Z,65.07
2023-04-18T17:23:42.621Z,65.76
2023-04-18T17:24:42.475Z,64.92
2023-04-18T17:25:42.425Z,63.85
2023-04-18T17:26:42.447Z,65.67
2023-04-18T17:27:44.275Z,66.51
2023-04-18T17:28:42.459Z,66.49
2023-04-18T17:29:42.496Z,66.97
2023-04-18T17:30:42.439Z,67.82
2023-04-18T17:31:42.483Z,69.29
2023-04-18T17:32:42.531Z,69.75
2023-04-18T17:33:42.474Z,67.42
2023-04-18T17:34:42.480Z,70.40
2023-04-18T17:35:42.429Z,71.12
2023-04-18T17:36:42.434Z,71.37
2023-04-18T17:37:42.457Z,68.11
2023-04-18T17:38:42.480Z,69.34
2023-04-18T17:39:42.466Z,69.29
2023-04-18T17:40:42.466Z,69.99
2023-04-18T17:41:42.408Z,71.36
2023-04-18T17:42:42.416Z,70.70
2023-04-18T17:43:42.447Z,71.64
2023-04-18T17:44:42.453Z,71.75
2023-04-18T17:45:42.412Z,71.68
2023-04-18T17:46:42.420Z,72.30
2023-04-18T17:47:42.496Z,73.60
2023-04-18T17:48:42.409Z,70.77
2023-04-18T17:49:42.446Z,74.71
2023-04-18T17:50:42.394Z,74.35
2023-04-18T17:51:42.382Z,73.76
2023-04-18T17:52:42.363Z,75.85
2023-04-18T17:53:42.401Z,74.11
2023-04-18T17:54:42.373Z,71.20
2023-04-18T17:55:42.364Z,71.78
2023-04-18T17:56:42.402Z,73.88
2023-04-18T17:57:42.372Z,71.51
2023-04-18T17:58:42.395Z,71.84
2023-04-18T17:59:42.373Z,72.01
2023-04-18T18:00:42.402Z,75.70
2023-04-18T18:01:42.453Z,76.28
2023-04-18T18:02:42.506Z,74.21
2023-04-18T18:03:42.433Z,77.37
2023-04-18T18:04:42.408Z,77.24
2023-04-18T18:05:42.348Z,77.81
2023-04-18T18:06:42.361Z,75.60
2023-04-18T18:07:42.368Z,76.52
2023-04-18T18:08:42.368Z,78.54
2023-04-18T18:09:42.378Z,78.42
2023-04-18T18:10:42.354Z,76.08
2023-04-18T18:11:42.374Z,79.38
2023-04-18T18:12:42.390Z,75.18
2023-04-18T18:13:42.432Z,76.74
2023-04-18T18:14:42.353Z,76.04
2023-04-18T18:15:42.403Z,80.94
2023-04-18T18:16:42.424Z,79.36
2023-04-18T18:17:42.433Z,80.19
2023-04-18T18:18:42.396Z,82.15
2023-04-18T18:19:42.386Z,82.15
2023-04-18T18:20:42.383Z,82.12
2023-04-18T18:21:42.430Z,83.05
2023-04-18T18:22:42.403Z,80.43
2023-04-18T18:23:42.417Z,80.25
2023-04-18T18:24:42.418Z,80.47
2023-04-18T18:25:42.425Z,82.30
2023-04-18T18:26:42.392Z,80.48
2023-04-18T18:27:42.391Z,82.60
2023-04-18T18:28:42.443Z,84.92
2023-04-18T18:29:42.393Z,85.28
2023-04-18T18:30:42.428Z,83.85
2023-04-18T18:31:42.619Z,82.45
2023-04-18T18:32:42.470Z,84.82
2023-04-18T18:33:42.484Z,84.36
2023-04-18T18:34:42.439Z,82.00
2023-04-18T18:35:42.442Z,82.84
2023-04-18T18:36:42.442Z,81.60
2023-04-18T18:37:42.489Z,82.78
2023-04-18T18:38:42.481Z,84.90
2023-04-18T18:39:42.498Z,84.97
2023-04-18T18:40:42.515Z,86.55
2023-04-18T18:41:42.496Z,88.86
2023-04-18T18:42:42.543Z,87.10
2023-04-18T18:43:42.491Z,88.45
2023-04-18T18:44:42.492Z,85.87
2023-04-18T18:45:42.506Z,86.38
2023-04-18T18:46:43.217Z,88.41
2023-04-18T18:47:42.540Z,88.46
2023-04-18T18:48:42.565Z,87.13
2023-04-18T18:49:42.520Z,89.16
2023-04-18T18:50:42.549Z,88.30
2023-04-18T18:51:42.506Z,88.07
2023-04-18T18:52:42.500Z,87.29
2023-04-18T18:53:42.557Z,89.77
2023-04-18T18:54:42.579Z,89.77
2023-04-18T18:55:42.524Z,90.68
2023-04-18T18:56:42.550Z,90.57
2023-04-18T18:57:42.563Z,92.50
2023-04-18T18:58:42.545Z,90.16
2023-04-18T18:59:42.576Z,91.18
2023-04-18T19:00:42.564Z,93.46
2023-04-18T19:01:42.608Z,90.99
2023-04-18T19:02:42.767Z,92.09
2023-04-18T19:03:42.723Z,93.55
2023-04-18T19:04:42.621Z,93.25
2023-04-18T19:05:42.558Z,93.41
2023-04-18T19:06:42.574Z,90.71
2023-04-18T19:07:42.575Z,92.96
2023-04-18T19:08:42.574Z,91.55
2023-04-18T19:09:42.560Z,90.86
2023-04-18T19:10:42.570Z,93.10
2023-04-18T19:11:42.568Z,95.86
2023-04-18T19:12:42.598Z,93.30
2023-04-18T19:13:42.558Z,91.68
2023-04-18T19:14:42.575Z,93.05
2023-04-18T19:15:42.593Z,94.52
2023-04-18T19:16:42.594Z,92.40
2023-04-18T19:17:42.597Z,92.03
2023-04-18T19:18:42.561Z,92.78
2023-04-18T19:19:42.570Z,93.37
2023-04-18T19:20:42.573Z,98.04
2023-04-18T19:21:42.627Z,96.81
2023-04-18T19:22:42.584Z,95.46
2023-04-18T19:23:42.551Z,97.98
2023-04-18T19:24:42.576Z,101.67
2023-04-18T19:25:42.577Z,101.56
2023-04-18T19:26:42.604Z,103.58
2023-04-18T19:27:42.550Z,103.11
2023-04-18T19:28:42.570Z,100.60
2023-04-18T19:29:42.535Z,101.07
2023-04-18T19:30:42.551Z,104.71
2023-04-18T19:31:42.577Z,103.15
2023-04-18T19:32:42.625Z,102.77
2023-04-18T19:33:42.619Z,103.46
2023-04-18T19:34:42.637Z,101.20
2023-04-18T19:35:42.720Z,104.54
2023-04-18T19:36:42.664Z,105.31
2023-04-18T19:37:42.695Z,105.07
2023-04-18T19:38:42.792Z,99.98
2023-04-18T19:39:42.821Z,103.90
2023-04-18T19:40:42.852Z,104.66
2023-04-18T19:41:42.909Z,104.47
2023-04-18T19:42:42.989Z,104.46
2023-04-18T19:43:43.057Z,101.04
2023-04-18T19:44:43.079Z,106.65
2023-04-18T19:45:43.236Z,103.51
2023-04-18T19:46:43.210Z,100.93
2023-04-18T19:47:43.317Z,101.78
2023-04-18T19:48:43.328Z,103.56
2023-04-18T19:49:43.392Z,103.49
2023-04-18T19:50:43.471Z,103.01
2023-04-18T19:51:43.548Z,103.31
2023-04-18T19:52:43.605Z,100.98
2023-04-18T19:53:43.663Z,100.89
2023-04-18T19:54:43.728Z,103.88
2023-04-18T19:55:43.734Z,100.18
2023-04-18T19:56:43.821Z,100.22
2023-04-18T19:57:43.897Z,98.74
2023-04-18T19:58:43.964Z,96.71
2023-04-18T19:59:44.026Z,96.04
2023-04-18T20:00:44.051Z,95.94
2023-04-18T20:01:44.222Z,93.47
2023-04-18T20:02:44.351Z,93.34
2023-04-18T20:03:44.495Z,93.60
2023-04-18T20:04:44.425Z,93.49
2023-04-18T20:05:44.485Z,91.03
2023-04-18T20:06:44.369Z,92.02
2023-04-18T20:07:44.423Z,93.21
2023-04-18T20:08:44.489Z,92.71
2023-04-18T20:09:44.500Z,92.02
2023-04-18T20:10:44.559Z,92.37
2023-04-18T20:11:44.586Z,93.68
2023-04-18T20:12:44.629Z,91.53
2023-04-18T20:13:44.653Z,92.87
2023-04-18T20:14:44.673Z,90.99
2023-04-18T20:15:44.698Z,90.57
2023-04-18T20:16:44.714Z,89.79
2023-04-18T20:17:44.791Z,87.54
2023-04-18T20:18:44.752Z,89.43
2023-04-18T20:19:44.825Z,89.93
2023-04-18T20:20:44.796Z,89.42
2023-04-18T20:21:44.849Z,89.10
2023-04-18T20:22:44.886Z,89.45
2023-04-18T20:23:44.985Z,90.97
2023-04-18T20:24:44.994Z,89.93
2023-04-18T20:25:44.946Z,90.75
2023-04-18T20:26:44.961Z,88.84
2023-04-18T20:27:45.004Z,90.46
2023-04-18T20:28:45.021Z,88.00
2023-04-18T20:29:44.997Z,87.52
2023-04-18T20:30:45.027Z,88.33
2023-04-18T20:31:45.025Z,88.93
2023-04-18T20:32:45.035Z,90.12
2023-04-18T20:33:45.049Z,89.26
2023-04-18T20:34:45.037Z,87.60
2023-04-18T20:35:45.039Z,86.18
2023-04-18T20:36:45.040Z,87.09
2023-04-18T20:37:45.036Z,88.33
2023-04-18T20:38:45.085Z,88.38
2023-04-18T20:39:45.057Z,88.14
2023-04-18T20:40:45.107Z,87.63
2023-04-18T20:41:45.122Z,85.07
2023-04-18T20:42:45.081Z,85.43
2023-04-18T20:43:45.089Z,86.67
2023-04-18T20:44:45.087Z,87.02
2023-04-18T20:45:45.111Z,83.39
2023-04-18T20:46:45.126Z,85.11
2023-04-18T20:47:45.129Z,85.50
2023-04-18T20:48:45.182Z,85.77
2023-04-18T20:49:45.137Z,89.47
2023-04-18T20:50:45.190Z,86.30
2023-04-18T20:51:45.179Z,88.21
2023-04-18T20:52:45.158Z,87.85
2023-04-18T20:53:45.168Z,85.51
2023-04-18T20:54:45.180Z,87.79
2023-04-18T20:55:45.148Z,87.40
2023-04-18T20:56:45.174Z,90.48
2023-04-18T20:57:45.155Z,89.43
2023-04-18T20:58:45.201Z,90.04
2023-04-18T20:59:45.217Z,89.09
2023-04-18T21:00:45.200Z,90.33
2023-04-18T21:01:45.289Z,90.61
2023-04-18T21:02:45.320Z,91.07
2023-04-18T21:03:45.398Z,90.35
2023-04-18T21:04:45.315Z,91.25
2023-04-18T21:05:45.303Z,90.51
2023-04-18T21:06:45.261Z,91.54
2023-04-18T21:07:45.859Z,90.97
2023-04-18T21:08:45.250Z,90.27
2023-04-18T21:09:45.273Z,86.96
2023-04-18T21:10:45.225Z,90.90
2023-04-18T21:11:45.249Z,89.91
2023-04-18T21:12:45.244Z,92.13
2023-04-18T21:13:45.251Z,91.14
2023-04-18T21:14:45.215Z,92.43
2023-04-18T21:15:45.236Z,92.60
2023-04-18T21:16:45.245Z,91.70
2023-04-18T21:17:45.274Z,91.64
2023-04-18T21:18:45.243Z,90.61
2023-04-18T21:19:45.182Z,91.86
2023-04-18T21:20:45.265Z,91.95
2023-04-18T21:21:45.197Z,92.17
2023-04-18T21:22:45.206Z,94.93
2023-04-18T21:23:45.224Z,91.70
2023-04-18T21:24:45.235Z,91.51
2023-04-18T21:25:45.195Z,91.73
2023-04-18T21:26:45.170Z,93.45
2023-04-18T21:27:45.173Z,90.00
2023-04-18T21:28:45.178Z,91.95
2023-04-18T21:29:45.188Z,92.61
2023-04-18T21:30:45.207Z,90.98
2023-04-18T21:31:45.196Z,93.19
2023-04-18T21:32:45.214Z,91.43
2023-04-18T21:33:45.157Z,92.24
2023-04-18T21:34:45.137Z,92.13
2023-04-18T21:35:45.176Z,90.58
2023-04-18T21:36:45.157Z,93.48
2023-04-18T21:37:45.149Z,94.58
2023-04-18T21:38:45.162Z,93.70
2023-04-18T21:39:45.158Z,92.90
2023-04-18T21:40:45.143Z,92.53
2023-04-18T21:41:45.151Z,93.64
2023-04-18T21:42:45.121Z,94.30
2023-04-18T21:43:45.174Z,95.45
2023-04-18T21:44:45.135Z,93.52
2023-04-18T21:45:45.144Z,94.45
2023-04-18T21:46:45.111Z,93.65
2023-04-18T21:47:45.139Z,93.75
2023-04-18T21:48:45.126Z,96.02
2023-04-18T21:49:45.102Z,95.37
2023-04-18T21:50:45.106Z,92.76
2023-04-18T21:51:45.082Z,92.35
2023-04-18T21:52:45.083Z,92.64
2023-04-18T21:53:45.077Z,93.98
2023-04-18T21:54:45.075Z,94.96
2023-04-18T21:55:45.118Z,92.14
2023-04-18T21:56:45.105Z,92.87
2023-04-18T21:57:45.096Z,95.15
2023-04-18T21:58:45.112Z,96.18
2023-04-18T21:59:45.119Z,92.61
2023-04-18T22:00:45.114Z,95.89
2023-04-18T22:01:45.127Z,95.37
2023-04-18T22:02:45.235Z,94.71
2023-04-18T22:03:45.305Z,95.00
2023-04-18T22:04:45.162Z,95.70
2023-04-18T22:05:45.130Z,93.88
2023-04-18T22:06:45.152Z,96.30
2023-04-18T22:07:56.863Z,95.77
2023-04-18T22:08:46.161Z,95.87
2023-04-18T22:09:45.132Z,96.13
2023-04-18T22:10:45.158Z,97.42
2023-04-18T22:11:45.156Z,97.32
2023-04-18T22:12:45.110Z,98.66
2023-04-18T22:13:45.218Z,96.69
2023-04-18T22:14:45.118Z,98.45
2023-04-18T22:15:45.136Z,96.05
2023-04-18T22:16:45.151Z,96.14
2023-04-18T22:17:45.167Z,95.61
2023-04-18T22:18:45.088Z,97.15
2023-04-18T22:19:45.088Z,97.37
2023-04-18T22:20:45.070Z,97.40
2023-04-18T22:21:45.083Z,98.85
2023-04-18T22:22:45.119Z,98.75
2023-04-18T22:23:45.098Z,97.81
2023-04-18T22:24:47.578Z,99.39
2023-04-18T22:25:45.056Z,101.61
2023-04-18T22:26:45.057Z,100.96
2023-04-18T22:27:45.024Z,102.41
2023-04-18T22:28:45.027Z,99.70
2023-04-18T22:29:45.009Z,99.75
2023-04-18T22:30:45.040Z,98.97
2023-04-18T22:31:45.037Z,98.67
2023-04-18T22:32:45.017Z,98.67
2023-04-18T22:33:44.960Z,100.60
2023-04-18T22:34:45.368Z,98.67
2023-04-18T22:35:44.980Z,101.07
2023-04-18T22:36:44.995Z,100.26
2023-04-18T22:37:44.969Z,99.62
2023-04-18T22:38:44.957Z,100.17
2023-04-18T22:39:44.985Z,100.90
2023-04-18T22:40:44.944Z,103.97
2023-04-18T22:41:44.924Z,102.13
2023-04-18T22:42:44.925Z,102.44
2023-04-18T22:43:44.925Z,103.12
2023-04-18T22:44:44.916Z,99.43
2023-04-18T22:45:45.001Z,104.34
2023-04-18T22:46:45.062Z,103.16
2023-04-18T22:47:44.942Z,101.74
2023-04-18T22:48:44.864Z,102.51
2023-04-18T22:49:44.878Z,103.03
2023-04-18T22:50:44.862Z,100.68
2023-04-18T22:51:44.876Z,101.05
2023-04-18T22:52:44.884Z,102.42
2023-04-18T22:53:44.864Z,103.27
2023-04-18T22:54:44.912Z,102.61
2023-04-18T22:55:44.855Z,104.50
2023-04-18T22:56:44.854Z,101.58
2023-04-18T22:57:44.808Z,102.23
2023-04-18T22:58:44.852Z,103.48
2023-04-18T22:59:44.822Z,102.44
2023-04-18T23:00:44.829Z,104.13
2023-04-18T23:01:44.832Z,101.99
2023-04-18T23:02:45.000Z,102.80
2023-04-18T23:03:44.999Z,102.97
2023-04-18T23:04:44.956Z,101.78
2023-04-18T23:05:44.768Z,103.11
2023-04-18T23:06:44.828Z,103.82
2023-04-18T23:07:44.783Z,102.36
2023-04-18T23:08:44.810Z,103.28
2023-04-18T23:09:44.753Z,103.35
2023-04-18T23:10:44.748Z,104.67
2023-04-18T23:11:44.709Z,103.53
2023-04-18T23:12:44.767Z,102.32
2023-04-18T23:13:44.747Z,105.34
2023-04-18T23:14:44.777Z,104.07
2023-04-18T23:15:44.790Z,105.43
2023-04-18T23:16:44.775Z,106.25
2023-04-18T23:17:44.734Z,105.28
2023-04-18T23:18:44.703Z,105.85
2023-04-18T23:19:44.691Z,106.44
2023-04-18T23:20:44.723Z,105.73
2023-04-18T23:21:44.893Z,107.79
2023-04-18T23:22:44.686Z,106.32
2023-04-18T23:23:44.689Z,105.76
2023-04-18T23:24:44.640Z,103.82
2023-04-18T23:25:44.620Z,105.33
2023-04-18T23:26:44.649Z,105.42
2023-04-18T23:27:44.613Z,104.82
2023-04-18T23:28:44.704Z,105.47
2023-04-18T23:29:44.610Z,105.37
2023-04-18T23:30:44.584Z,106.74
2023-04-18T23:31:44.617Z,107.52
2023-04-18T23:32:44.628Z,106.22
2023-04-18T23:33:44.585Z,109.37
2023-04-18T23:34:44.579Z,105.89
2023-04-18T23:35:44.546Z,106.12
2023-04-18T23:36:44.551Z,106.72
2023-04-18T23:37:44.595Z,107.02
2023-04-18T23:38:44.545Z,105.98
2023-04-18T23:39:44.547Z,108.02
2023-04-18T23:40:44.514Z,108.51
2023-04-18T23:41:44.514Z,108.36
2023-04-18T23:42:44.530Z,106.45
2023-04-18T23:43:44.495Z,106.81
2023-04-18T23:44:44.519Z,107.61
2023-04-18T23:45:44.489Z,106.76
2023-04-18T23:46:44.553Z,108.76
2023-04-18T23:47:44.497Z,108.64
2023-04-18T23:48:44.462Z,106.16
2023-04-18T23:49:44.436Z,107.33
2023-04-18T23:50:44.456Z,107.92
2023-04-18T23:51:44.447Z,109.46
2023-04-18T23:52:44.450Z,109.31
2023-04-18T23:53:44.439Z,108.33
2023-04-18T23:54:44.421Z,108.56
2023-04-18T23:55:44.469Z,107.53
2023-04-18T23:56:44.399Z,106.47
2023-04-18T23:57:44.391Z,108.60
2023-04-18T23:58:44.379Z,106.70
2023-04-18T23:59:44.402Z,108.83
